George West, Texas
Current Conditions -  °F | °C
As of 6:15 AM on Monday 20 Oct 2014 (Local Time) from KBEA Reporting Station
Scattered Clouds Scattered Clouds  
Wind Chill: 68°   Ceiling: Unl
Heat Index: 68°   Visibility: 10mi
Dew Point: 68°   Wind: 6mph
Humidity: 99%   Direction: 60°ENE
Pressure: 29.97"   Gusts: NA
Location:  28.33°N, 98.12°W
Report Text: KBEA 201115Z AUTO 06005KT 10SM SCT070 20/20 A2997 RMK AO2 T02010200
Loading
Personal Weather Stations






























Interactive Weather Map
Tropical Storm Tracking
New forecast layout! Learn more

10-Day Weather Forecast

Advertisements
Track Severe Weather on mobile